Oak Grove (212) Station Data

Red Flag Warning: No
Fire Weather Zone: 258
SDGE Region: Ramona
Lat/Lon: 33.392/-116.788

Observations

Time Wind Speed/Gust Temp(F) RH Fuel Moist Fuel Temp(F) Dewpt(F) Tmax(F) Tmin(F) Accum Precip 10-min Precip SL Press(mb)
3/29 8:00am 167 8 G 12 64° 22% - - 25° 65.2° 43.6° - - -
3/29 7:50am 135 7 G 10 64° 22% - - 24° 65.1° 43.6° - - -
3/29 7:40am 127 6 G 9 62° 23% - - 24° 63.9° 43.6° - - -
3/29 7:30am 132 6 G 9 60° 25% - - 24° 62.3° 43.6° - - -
3/29 7:20am 77 5 G 7 55° 30% - - 24° 60.6° 43.6° - - -
3/29 7:10am 147 7 G 11 58° 26% - - 24° 60.6° 43.6° - - -
3/29 7:00am 124 5 G 8 54° 30% - - 24° 60.6° 43.6° - - -
3/29 6:50am 116 5 G 9 55° 29% - - 24° 60.6° 43.6° - - -
3/29 6:40am 63 3 G 6 51° 34% - - 24° 60.6° 43.6° - - -
3/29 6:30am 174 1 G 2 51° 34% - - 23° 60.6° 43.6° - - -
3/29 6:20am 126 1 G 6 49° 36% - - 24° 60.6° 43.6° - - -
3/29 6:10am 94 3 G 7 48° 38% - - 24° 60.6° 43.6° - - -
3/29 6:00am 82 3 G 5 50° 35% - - 24° 60.6° 43.6° - - -
3/29 5:50am 122 4 G 7 50° 34% - - 23° 60.6° 43.6° - - -
3/29 5:40am 106 2 G 4 50° 34% - - 23° 60.6° 43.6° - - -
3/29 5:30am 94 3 G 6 51° 33% - - 23° 60.6° 43.6° - - -
3/29 5:20am 119 4 G 6 50° 35% - - 23° 60.6° 43.6° - - -
3/29 5:10am 155 3 G 6 52° 31% - - 22° 60.6° 43.6° - - -
3/29 5:00am 40 3 G 10 52° 30% - - 22° 60.6° 43.6° - - -
3/29 4:50am 140 2 G 5 47° 37% - - 23° 60.6° 43.6° - - -
3/29 4:40am 113 4 G 10 49° 33% - - 22° 60.6° 43.6° - - -
3/29 4:30am 120 4 G 10 50° 33% - - 22° 60.6° 43.6° - - -
3/29 4:20am 105 5 G 7 50° 32% - - 21° 60.6° 43.6° - - -
3/29 4:10am 109 4 G 8 51° 30% - - 21° 60.6° 43.6° - - -
3/29 4:00am 164 4 G 8 52° 29% - - 21° 60.6° 43.6° - - -
3/29 3:50am 122 4 G 10 54° 27% - - 20° 60.6° 43.6° - - -
3/29 3:40am 137 4 G 8 51° 30% - - 21° 60.6° 43.6° - - -
3/29 3:30am 66 4 G 8 53° 27% - - 20° 60.6° 43.6° - - -
3/29 3:20am 116 5 G 11 52° 28% - - 20° 60.6° 43.6° - - -
3/29 3:10am 214 6 G 11 55° 25% - - 20° 60.6° 43.6° - - -
3/29 3:00am 150 3 G 10 55° 24% - - 19° 60.6° 43.6° - - -
3/29 2:50am 105 4 G 13 52° 28% - - 20° 60.6° 43.6° - - -
3/29 2:40am 70 4 G 10 54° 26% - - 19° 60.6° 43.6° - - -
3/29 2:30am 101 5 G 8 53° 26% - - 20° 60.6° 43.6° - - -
3/29 2:20am 97 6 G 12 58° 21% - - 18° 60.6° 43.6° - - -
3/29 2:10am 82 8 G 12 57° 22% - - 18° 59.8° 43.6° - - -
3/29 2:00am 200 4 G 10 56° 24% - - 19° 58.5° 43.6° - - -
3/29 1:50am 164 5 G 9 55° 24% - - 19° 57.2° 43.6° - - -
3/29 1:40am 127 4 G 15 50° 30% - - 20° 53.4° 43.6° - - -
3/29 1:30am 78 4 G 8 49° 32% - - 20° 53.4° 43.6° - - -
3/29 1:20am 113 3 G 9 51° 29% - - 20° 53° 43.6° - - -
3/29 1:10am 116 4 G 8 49° 33% - - 21° 51.3° 43.6° - - -
3/29 1:00am 122 3 G 7 48° 34% - - 21° 51.3° 43.6° - - -
3/29 12:50am 142 4 G 8 46° 38% - - 22° 51.3° 43.6° - - -
3/29 12:40am 106 3 G 5 48° 37% - - 23° 51.3° 43.6° - - -
3/29 12:30am 85 4 G 6 46° 42% - - 23° 51.1° 43.6° - - -
3/29 12:20am 61 5 G 10 46° 42% - - 24° 51.1° 43.6° - - -
3/29 12:10am 69 3 G 7 49° 37% - - 24° 51.1° 47.4° - - -
3/29 12:00am 139 5 G 9 50° 37% - - 25° 68.4° 34.1° - - -
3/28 11:50pm 91 5 G 11 46° 47% - - 27° 68.4° 34.1° - - -
3/28 11:40pm 139 4 G 6 47° 43% - - 26° 68.4° 34.1° - - -
3/28 11:30pm 130 5 G 8 47° 44% - - 27° 68.4° 34.1° - - -
3/28 11:20pm 132 3 G 5 46° 48% - - 28° 68.4° 34.1° - - -
3/28 11:10pm 99 4 G 6 47° 48% - - 28° 68.4° 34.1° - - -
3/28 11:00pm 93 3 G 7 45° 56% - - 30° 68.4° 34.1° - - -
3/28 10:50pm 115 4 G 5 44° 59% - - 31° 68.4° 34.1° - - -
3/28 10:40pm 69 3 G 6 41° 68% - - 32° 68.4° 34.1° - - -
3/28 10:30pm 93 2 G 3 45° 59% - - 31° 68.4° 34.1° - - -
3/28 10:20pm 158 4 G 5 47° 54% - - 31° 68.4° 34.1° - - -
3/28 10:10pm 142 4 G 5 47° 56% - - 32° 68.4° 34.1° - - -
3/28 10:00pm 134 3 G 5 47° 56% - - 32° 68.4° 34.1° - - -
3/28 9:50pm 129 4 G 5 47° 55% - - 32° 68.4° 34.1° - - -
3/28 9:40pm 144 2 G 4 48° 54% - - 32° 68.4° 34.1° - - -
3/28 9:30pm 103 2 G 4 49° 51% - - 31° 68.4° 34.1° - - -
3/28 9:20pm 131 2 G 3 48° 53% - - 32° 68.4° 34.1° - - -
3/28 9:10pm 130 3 G 4 48° 54% - - 32° 68.4° 34.1° - - -
3/28 9:00pm 142 4 G 5 49° 51% - - 32° 68.4° 34.1° - - -
3/28 8:50pm 142 4 G 6 50° 51% - - 32° 68.4° 34.1° - - -
3/28 8:40pm 140 3 G 4 50° 50% - - 32° 68.4° 34.1° - - -
3/28 8:30pm 137 5 G 6 51° 49% - - 32° 68.4° 34.1° - - -
3/28 8:20pm 148 4 G 6 52° 47% - - 33° 68.4° 34.1° - - -
3/28 8:10pm 131 5 G 6 52° 48% - - 33° 68.4° 34.1° - - -
3/28 8:00pm 165 2 G 4 53° 45% - - 32° 68.4° 34.1° - - -
3/28 7:50pm 146 4 G 5 55° 43% - - 33° 68.4° 34.1° - - -
3/28 7:40pm 145 4 G 6 56° 40% - - 32° 68.4° 34.1° - - -
3/28 7:30pm 164 2 G 6 58° 39% - - 33° 68.4° 34.1° - - -
3/28 7:20pm 313 5 G 7 60° 34% - - 32° 68.4° 34.1° - - -
3/28 7:10pm 306 3 G 6 61° 33% - - 31° 68.4° 34.1° - - -
3/28 7:00pm 298 6 G 7 62° 30% - - 30° 68.4° 34.1° - - -
3/28 6:50pm 293 8 G 9 62° 30% - - 31° 68.4° 34.1° - - -
3/28 6:40pm 283 7 G 10 62° 32% - - 32° 68.4° 34.1° - - -
3/28 6:30pm 295 8 G 13 64° 31% - - 32° 68.4° 34.1° - - -
3/28 6:20pm 295 11 G 15 64° 30% - - 32° 68.4° 34.1° - - -
3/28 6:10pm 291 11 G 15 65° 29% - - 32° 68.4° 34.1° - - -
3/28 6:00pm 295 11 G 16 66° 28% - - 32° 68.4° 34.1° - - -
3/28 5:50pm 288 10 G 14 66° 26% - - 30° 68.4° 34.1° - - -
3/28 5:40pm 293 11 G 14 66° 25% - - 30° 68.4° 34.1° - - -
3/28 5:30pm 293 11 G 14 67° 26% - - 30° 68.4° 34.1° - - -
3/28 5:20pm 296 9 G 16 67° 27% - - 31° 68.4° 34.1° - - -
3/28 5:10pm 296 10 G 15 67° 26% - - 31° 68.4° 34.1° - - -
3/28 5:00pm 301 11 G 15 67° 26% - - 31° 68.4° 34.1° - - -
3/28 4:50pm 299 11 G 18 67° 26% - - 31° 68.4° 34.1° - - -
3/28 4:40pm 303 10 G 17 67° 26% - - 31° 68.4° 34.1° - - -
3/28 4:30pm 290 8 G 13 68° 28% - - 34° 68.4° 34.1° - - -
3/28 4:20pm 311 7 G 13 68° 26% - - 32° 68.3° 34.1° - - -
3/28 4:10pm 320 7 G 11 67° 26% - - 32° 68.3° 34.1° - - -
3/28 4:00pm 310 8 G 15 68° 27% - - 32° 68.3° 34.1° - - -
3/28 3:50pm 324 6 G 10 68° 27% - - 32° 68.2° 34.1° - - -
3/28 3:40pm 295 8 G 12 67° 27% - - 32° 68.2° 34.1° - - -
3/28 3:30pm 293 8 G 14 67° 28% - - 33° 68.2° 34.1° - - -
3/28 3:20pm 295 8 G 12 67° 29% - - 33° 67.8° 34.1° - - -
3/28 3:10pm 294 8 G 13 67° 27% - - 31° 67.1° 34.1° - - -
3/28 3:00pm 284 8 G 12 66° 27% - - 31° 67° 34.1° - - -
3/28 2:50pm 303 9 G 14 66° 27% - - 31° 66.6° 34.1° - - -
3/28 2:40pm 296 8 G 12 66° 29% - - 33° 66.6° 34.1° - - -
3/28 2:30pm 304 9 G 14 66° 29% - - 32° 66.4° 34.1° - - -
3/28 2:20pm 305 10 G 17 65° 29% - - 32° 66° 34.1° - - -
3/28 2:10pm 301 10 G 15 65° 29% - - 32° 66° 34.1° - - -
3/28 2:00pm 307 10 G 14 65° 30% - - 33° 66° 34.1° - - -
3/28 1:50pm 309 10 G 17 65° 31% - - 33° 65.6° 34.1° - - -
3/28 1:40pm 308 10 G 15 64° 31% - - 33° 65.1° 34.1° - - -
3/28 1:30pm 309 11 G 16 64° 32% - - 33° 65.1° 34.1° - - -
3/28 1:20pm 297 11 G 17 64° 32% - - 34° 65.1° 34.1° - - -
3/28 1:10pm 297 12 G 17 64° 32% - - 34° 65.1° 34.1° - - -
3/28 1:00pm 302 12 G 17 64° 33% - - 34° 65.1° 34.1° - - -
3/28 12:50pm 297 11 G 16 63° 33% - - 34° 65.1° 34.1° - - -
3/28 12:40pm 309 11 G 16 63° 32% - - 33° 65.1° 34.1° - - -
3/28 12:30pm 299 13 G 18 63° 31% - - 32° 65.1° 34.1° - - -
3/28 12:20pm 302 10 G 16 64° 31% - - 33° 65.1° 34.1° - - -
3/28 12:10pm 301 7 G 11 64° 27% - - 30° 65.1° 34.1° - - -
3/28 12:00pm 322 5 G 8 64° 27% - - 29° 64.8° 34.1° - - -
3/28 11:50am 303 6 G 9 63° 29% - - 30° 64° 34.1° - - -
3/28 11:40am 262 7 G 10 62° 31% - - 31° 62.8° 34.1° - - -
3/28 11:30am 298 7 G 12 62° 33% - - 33° 62.8° 34.1° - - -
3/28 11:20am 298 8 G 13 62° 33% - - 32° 62.1° 34.1° - - -
3/28 11:10am 305 8 G 11 61° 33% - - 32° 61.9° 34.1° - - -
3/28 11:00am 298 8 G 13 61° 33% - - 31° 61.9° 34.1° - - -
3/28 10:50am 303 7 G 12 60° 32% - - 31° 61.9° 34.1° - - -
3/28 10:40am 301 9 G 12 60° 32% - - 30° 61.9° 34.1° - - -
3/28 10:30am 296 7 G 10 60° 33% - - 30° 61.9° 34.1° - - -
3/28 10:20am 299 8 G 11 59° 34% - - 31° 61.9° 34.1° - - -
3/28 10:10am 295 7 G 12 60° 33% - - 30° 61.9° 34.1° - - -
3/28 10:00am 354 2 G 8 61° 22% - - 22° 61.9° 34.1° - - -
3/28 9:50am 197 2 G 5 60° 24% - - 23° 60.9° 34.1° - - -
3/28 9:40am 228 2 G 5 60° 24% - - 23° 60.8° 34.1° - - -
3/28 9:30am 116 5 G 9 59° 24% - - 23° 59.8° 34.1° - - -
3/28 9:20am 91 3 G 8 59° 25% - - 23° 59.8° 34.1° - - -
3/28 9:10am 171 3 G 9 58° 27% - - 24° 59° 34.1° - - -
3/28 9:00am 10 2 G 5 56° 36% - - 29° 57.4° 34.1° - - -
3/28 8:50am 41 3 G 5 54° 37% - - 29° 56.1° 34.1° - - -
3/28 8:40am 58 2 G 5 53° 43% - - 30° 53.5° 34.1° - - -
3/28 8:30am 79 3 G 4 50° 51% - - 32° 51.5° 34.1° - - -
3/28 8:20am 104 2 G 3 48° 63% - - 36° 48.6° 34.1° - - -
3/28 8:10am 34 2 G 4 45° 69% - - 35° 46.9° 34.1° - - -
3/28 8:00am 129 1 G 2 43° 70% - - 34° 43.9° 34.1° - - -
3/28 7:50am 95 2 G 4 41° 67% - - 31° 42.6° 34.1° - - -
3/28 7:40am 141 1 G 4 41° 64% - - 30° 42.6° 34.1° - - -
3/28 7:30am 162 3 G 6 39° 68% - - 29° 42.6° 34.1° - - -
3/28 7:20am 96 3 G 5 38° 68% - - 29° 42.6° 34.1° - - -
3/28 7:10am 185 2 G 5 36° 75% - - 29° 42.6° 34.1° - - -
3/28 7:00am 101 4 G 9 37° 72% - - 28° 42.6° 34.1° - - -
3/28 6:50am 139 4 G 5 37° 72% - - 29° 42.6° 34.1° - - -
3/28 6:40am 114 2 G 4 36° 78% - - 29° 42.6° 34.1° - - -
3/28 6:30am 96 3 G 5 36° 77% - - 30° 42.6° 34.1° - - -
3/28 6:20am 148 3 G 5 36° 80% - - 31° 42.6° 34.1° - - -
3/28 6:10am 121 4 G 6 35° 80% - - 30° 42.6° 34.1° - - -
3/28 6:00am 97 4 G 7 35° 77% - - 29° 42.6° 34.1° - - -